createdAt,value
2018-05-06T00:00:35.536Z,14.30
2018-05-06T00:03:03.673Z,14.30
2018-05-06T00:05:31.693Z,14.20
2018-05-06T00:07:59.753Z,14.20
2018-05-06T00:10:28.530Z,14.10
2018-05-06T00:12:57.406Z,14.10
2018-05-06T00:15:25.464Z,14.10
2018-05-06T00:17:53.529Z,14.00
2018-05-06T00:20:21.553Z,14.00
2018-05-06T00:22:49.616Z,14.00
2018-05-06T00:25:17.691Z,14.00
2018-05-06T00:27:45.730Z,13.90
2018-05-06T00:30:13.777Z,13.90
2018-05-06T00:32:42.631Z,13.80
2018-05-06T00:35:10.693Z,13.80
2018-05-06T00:37:39.530Z,13.80
2018-05-06T00:40:07.574Z,13.70
2018-05-06T00:42:35.630Z,13.80
2018-05-06T00:45:03.678Z,13.70
2018-05-06T00:47:31.763Z,13.70
2018-05-06T00:49:59.827Z,13.70
2018-05-06T00:52:27.877Z,13.70
2018-05-06T00:54:55.937Z,13.70
2018-05-06T00:57:23.986Z,13.60
2018-05-06T00:59:52.802Z,13.60
2018-05-06T01:02:20.879Z,13.60
2018-05-06T01:04:48.914Z,13.50
2018-05-06T01:07:17.769Z,13.40
2018-05-06T01:09:45.778Z,13.40
2018-05-06T01:12:14.616Z,13.40
2018-05-06T01:14:42.681Z,13.30
2018-05-06T01:17:10.764Z,13.30
2018-05-06T01:19:38.788Z,13.30
2018-05-06T01:22:07.616Z,13.30
2018-05-06T01:24:35.669Z,13.30
2018-05-06T01:27:03.725Z,13.30
2018-05-06T01:29:31.789Z,13.30
2018-05-06T01:32:00.586Z,13.20
2018-05-06T01:34:28.639Z,13.20
2018-05-06T01:36:57.461Z,13.10
2018-05-06T01:39:25.557Z,13.10
2018-05-06T01:41:53.587Z,13.10
2018-05-06T01:44:21.622Z,13.10
2018-05-06T01:46:50.084Z,13.10
2018-05-06T01:49:18.582Z,13.10
2018-05-06T01:51:46.617Z,13.10
2018-05-06T01:54:14.678Z,13.10
2018-05-06T01:56:42.760Z,13.10
2018-05-06T01:59:12.332Z,13.10
2018-05-06T02:01:41.191Z,13.10
2018-05-06T02:04:10.399Z,13.00
2018-05-06T02:09:08.576Z,12.80
2018-05-06T02:11:36.600Z,12.70
2018-05-06T02:14:04.763Z,12.60
2018-05-06T02:16:32.809Z,12.70
2018-05-06T02:19:02.031Z,12.70
2018-05-06T02:21:30.836Z,12.70
2018-05-06T02:23:58.887Z,12.70
2018-05-06T02:26:27.700Z,12.70
2018-05-06T02:28:55.739Z,12.70
2018-05-06T02:31:24.590Z,12.70
2018-05-06T02:33:52.738Z,12.60
2018-05-06T02:36:20.777Z,12.60
2018-05-06T02:38:49.584Z,12.60
2018-05-06T02:41:17.662Z,12.60
2018-05-06T02:43:45.711Z,12.60
2018-05-06T02:46:14.520Z,12.50
2018-05-06T02:48:42.580Z,12.50
2018-05-06T02:51:10.626Z,12.40
2018-05-06T02:53:39.479Z,12.40
2018-05-06T02:56:07.609Z,12.40
2018-05-06T02:58:35.629Z,12.40
2018-05-06T03:01:03.656Z,12.30
2018-05-06T03:03:31.712Z,12.20
2018-05-06T03:06:00.547Z,12.20
2018-05-06T03:08:28.590Z,12.20
2018-05-06T03:10:56.651Z,12.20
2018-05-06T03:13:25.431Z,12.10
2018-05-06T03:15:54.237Z,12.10
2018-05-06T03:18:22.299Z,12.10
2018-05-06T03:20:50.352Z,12.10
2018-05-06T03:23:19.762Z,12.10
2018-05-06T03:25:48.601Z,12.00
2018-05-06T03:28:16.665Z,12.00
2018-05-06T03:30:44.694Z,12.00
2018-05-06T03:33:13.522Z,11.90
2018-05-06T03:35:41.589Z,11.90
2018-05-06T03:38:09.641Z,11.90
2018-05-06T03:40:37.693Z,11.80
2018-05-06T03:43:06.585Z,11.80
2018-05-06T03:45:35.432Z,11.80
2018-05-06T03:48:03.485Z,11.80
2018-05-06T03:50:31.593Z,11.90
2018-05-06T03:52:59.620Z,11.80
2018-05-06T03:55:27.656Z,11.80
2018-05-06T03:58:08.310Z,11.70
2018-05-06T04:00:45.988Z,11.80
2018-05-06T04:03:14.744Z,11.80
2018-05-06T04:05:42.884Z,11.80
2018-05-06T04:08:10.858Z,11.80
2018-05-06T04:10:39.671Z,11.80
2018-05-06T04:13:08.106Z,11.80
2018-05-06T04:15:36.153Z,11.90
2018-05-06T04:18:04.238Z,11.90
2018-05-06T04:20:32.283Z,11.90
2018-05-06T04:23:00.349Z,11.90
2018-05-06T04:25:28.419Z,12.00
2018-05-06T04:27:56.565Z,12.00
2018-05-06T04:30:24.617Z,12.00
2018-05-06T04:32:52.647Z,12.00
2018-05-06T04:35:20.708Z,12.00
2018-05-06T04:37:49.199Z,12.10
2018-05-06T04:40:17.242Z,12.10
2018-05-06T04:42:45.312Z,12.00
2018-05-06T04:45:13.381Z,12.10
2018-05-06T04:47:41.457Z,12.10
2018-05-06T04:50:09.526Z,12.20
2018-05-06T04:52:37.579Z,12.20
2018-05-06T04:55:06.395Z,12.20
2018-05-06T04:57:34.441Z,12.20
2018-05-06T05:00:02.477Z,12.30
2018-05-06T05:02:30.537Z,12.30
2018-05-06T05:04:58.581Z,12.30
2018-05-06T05:07:27.405Z,12.30
2018-05-06T05:09:56.097Z,12.30
2018-05-06T05:12:24.151Z,12.40
2018-05-06T05:14:52.195Z,12.40
2018-05-06T05:17:20.267Z,12.40
2018-05-06T05:19:48.326Z,12.50
2018-05-06T05:22:16.375Z,12.60
2018-05-06T05:24:45.222Z,12.60
2018-05-06T05:27:13.266Z,12.60
2018-05-06T05:29:41.329Z,12.70
2018-05-06T05:32:09.390Z,12.70
2018-05-06T05:34:37.462Z,12.70
2018-05-06T05:37:05.535Z,12.80
2018-05-06T05:39:33.631Z,12.80
2018-05-06T05:42:01.763Z,14.50
2018-05-06T05:44:29.788Z,15.20
2018-05-06T05:46:57.829Z,17.00
2018-05-06T05:49:25.881Z,19.10
2018-05-06T05:51:53.932Z,20.50
2018-05-06T05:54:22.771Z,22.50
2018-05-06T05:56:50.814Z,22.50
2018-05-06T05:59:18.886Z,23.40
2018-05-06T06:01:46.930Z,24.40
2018-05-06T06:04:15.362Z,24.80
2018-05-06T06:06:43.403Z,25.40
2018-05-06T06:09:11.473Z,26.10
2018-05-06T06:11:40.317Z,27.00
2018-05-06T06:14:08.377Z,27.30
2018-05-06T06:16:36.452Z,27.40
2018-05-06T06:19:04.498Z,28.00
2018-05-06T06:21:32.540Z,28.60
2018-05-06T06:24:01.346Z,29.30
2018-05-06T06:26:29.438Z,29.30
2018-05-06T06:28:57.487Z,29.70
2018-05-06T06:31:25.555Z,30.40
2018-05-06T06:33:53.605Z,30.70
2018-05-06T06:36:22.417Z,31.10
2018-05-06T06:38:50.483Z,31.70
2018-05-06T06:41:18.554Z,32.00
2018-05-06T06:43:47.371Z,32.40
2018-05-06T06:46:15.415Z,32.60
2018-05-06T06:48:43.490Z,32.60
2018-05-06T06:51:11.559Z,32.80
2018-05-06T06:53:40.354Z,33.00
2018-05-06T06:56:08.410Z,33.40
2018-05-06T06:58:36.857Z,33.30
2018-05-06T07:01:04.930Z,33.40
2018-05-06T07:03:33.011Z,33.90
2018-05-06T07:06:01.045Z,34.20
2018-05-06T07:08:29.105Z,34.10
2018-05-06T07:10:57.214Z,34.50
2018-05-06T07:13:25.298Z,34.60
2018-05-06T07:15:53.365Z,34.60
2018-05-06T07:18:21.494Z,34.60
2018-05-06T07:20:50.263Z,35.20
2018-05-06T07:23:19.057Z,35.70
2018-05-06T07:25:47.134Z,35.70
2018-05-06T07:28:15.168Z,36.00
2018-05-06T07:30:43.255Z,36.60
2018-05-06T07:33:12.100Z,36.90
2018-05-06T07:35:40.181Z,36.90
2018-05-06T07:38:08.217Z,37.00
2018-05-06T07:40:36.300Z,37.60
2018-05-06T07:43:04.321Z,37.70
2018-05-06T07:45:33.148Z,37.90
2018-05-06T07:48:01.197Z,38.30
2018-05-06T07:50:30.034Z,38.50
2018-05-06T07:52:58.841Z,38.30
2018-05-06T07:55:26.935Z,38.30
2018-05-06T07:57:55.717Z,37.90
2018-05-06T08:00:24.552Z,38.00
2018-05-06T08:02:52.622Z,38.00
2018-05-06T08:05:20.665Z,38.00
2018-05-06T08:07:49.506Z,38.70
2018-05-06T08:10:17.566Z,38.60
2018-05-06T08:12:45.652Z,38.90
2018-05-06T08:15:13.718Z,38.90
2018-05-06T08:17:41.790Z,39.00
2018-05-06T08:20:09.842Z,38.70
2018-05-06T08:22:37.905Z,39.00
2018-05-06T08:25:05.976Z,39.50
2018-05-06T08:27:34.049Z,39.70
2018-05-06T08:30:02.133Z,39.70
2018-05-06T08:32:30.190Z,39.60
2018-05-06T08:34:58.279Z,38.70
2018-05-06T08:37:26.413Z,38.70
2018-05-06T08:39:54.418Z,38.70
2018-05-06T08:42:22.491Z,39.00
2018-05-06T08:44:50.564Z,38.80
2018-05-06T08:47:18.618Z,38.70
2018-05-06T08:49:46.681Z,38.20
2018-05-06T08:52:15.633Z,37.50
2018-05-06T08:54:43.725Z,38.00
2018-05-06T08:57:11.763Z,38.70
2018-05-06T08:59:39.942Z,39.40
2018-05-06T09:02:07.974Z,40.00
2018-05-06T09:04:36.051Z,40.40
2018-05-06T09:07:04.086Z,40.80
2018-05-06T09:09:32.915Z,41.40
2018-05-06T09:12:01.035Z,41.30
2018-05-06T09:14:29.062Z,41.00
2018-05-06T09:16:57.107Z,40.30
2018-05-06T09:19:25.195Z,40.20
2018-05-06T09:21:53.237Z,40.00
2018-05-06T09:24:21.333Z,40.50
2018-05-06T09:26:49.378Z,40.40
2018-05-06T09:29:17.438Z,40.00
2018-05-06T09:31:46.466Z,39.30
2018-05-06T09:34:14.681Z,39.30
2018-05-06T09:36:42.724Z,39.10
2018-05-06T09:39:10.791Z,39.20
2018-05-06T09:41:38.832Z,39.60
2018-05-06T09:44:06.951Z,40.00
2018-05-06T09:46:35.830Z,40.70
2018-05-06T09:49:03.883Z,40.60
2018-05-06T09:51:31.957Z,41.10
2018-05-06T09:54:00.009Z,41.90
2018-05-06T09:56:28.028Z,41.60
2018-05-06T09:58:56.099Z,41.10
2018-05-06T10:01:24.164Z,40.70
2018-05-06T10:03:52.231Z,40.10
2018-05-06T10:06:22.911Z,40.00
2018-05-06T10:08:50.937Z,39.90
2018-05-06T10:11:19.019Z,39.50
2018-05-06T10:13:47.137Z,39.30
2018-05-06T10:16:15.147Z,39.50
2018-05-06T10:18:43.197Z,39.70
2018-05-06T10:21:11.246Z,40.00
2018-05-06T10:23:39.317Z,39.70
2018-05-06T10:26:08.185Z,38.20
2018-05-06T10:28:36.206Z,38.20
2018-05-06T10:31:04.251Z,38.30
2018-05-06T10:33:32.330Z,38.80
2018-05-06T10:36:00.422Z,38.80
2018-05-06T10:38:28.488Z,38.60
2018-05-06T10:40:56.555Z,38.80
2018-05-06T10:43:24.619Z,38.20
2018-05-06T10:45:52.704Z,37.50
2018-05-06T10:48:20.742Z,36.80
2018-05-06T10:50:48.793Z,36.80
2018-05-06T10:53:16.826Z,36.60
2018-05-06T10:55:44.893Z,36.10
2018-05-06T10:58:12.957Z,35.70
2018-05-06T11:00:41.049Z,35.60
2018-05-06T11:03:09.095Z,35.80
2018-05-06T11:05:37.121Z,35.80
2018-05-06T11:08:05.193Z,35.50
2018-05-06T11:10:33.702Z,35.50
2018-05-06T11:13:02.113Z,35.60
2018-05-06T11:15:30.270Z,35.40
2018-05-06T11:17:58.336Z,34.70
2018-05-06T11:20:26.339Z,34.40
2018-05-06T11:22:54.395Z,34.00
2018-05-06T11:25:22.449Z,33.60
2018-05-06T11:27:50.517Z,33.00
2018-05-06T11:30:18.595Z,32.90
2018-05-06T11:32:46.643Z,32.70
2018-05-06T11:35:15.499Z,32.60
2018-05-06T11:37:43.525Z,32.60
2018-05-06T11:40:11.585Z,32.60
2018-05-06T11:42:39.653Z,32.40
2018-05-06T11:45:07.921Z,32.40
2018-05-06T11:47:35.947Z,32.20
2018-05-06T11:50:04.029Z,32.00
2018-05-06T11:52:32.061Z,31.60
2018-05-06T11:55:00.135Z,31.50
2018-05-06T11:57:28.195Z,31.60
2018-05-06T11:59:56.222Z,31.60
2018-05-06T12:02:24.329Z,31.70
2018-05-06T12:04:52.342Z,31.60
2018-05-06T12:07:20.434Z,31.80
2018-05-06T12:09:48.542Z,31.70
2018-05-06T12:12:16.611Z,31.60
2018-05-06T12:14:44.648Z,31.40
2018-05-06T12:17:12.728Z,31.30
2018-05-06T12:19:40.822Z,31.10
2018-05-06T12:22:08.869Z,31.00
2018-05-06T12:24:36.905Z,31.00
2018-05-06T12:27:04.977Z,30.80
2018-05-06T12:29:33.045Z,30.70
2018-05-06T12:32:01.131Z,30.30
2018-05-06T12:34:29.185Z,29.90
2018-05-06T12:36:57.280Z,29.90
2018-05-06T12:39:25.332Z,29.80
2018-05-06T12:41:53.497Z,30.00
2018-05-06T12:44:21.543Z,30.20
2018-05-06T12:46:49.606Z,30.10
2018-05-06T12:49:18.403Z,30.10
2018-05-06T12:51:46.467Z,30.10
2018-05-06T12:54:15.303Z,29.50
2018-05-06T12:56:43.356Z,29.10
2018-05-06T12:59:11.430Z,29.00
2018-05-06T13:01:39.481Z,28.90
2018-05-06T13:04:08.099Z,28.90
2018-05-06T13:06:36.166Z,28.60
2018-05-06T13:09:04.221Z,28.50
2018-05-06T13:11:32.358Z,28.30
2018-05-06T13:14:00.368Z,28.10
2018-05-06T13:16:28.410Z,28.00
2018-05-06T13:18:57.219Z,27.90
2018-05-06T13:21:25.290Z,27.90
2018-05-06T13:23:53.348Z,27.80
2018-05-06T13:26:22.162Z,28.00
2018-05-06T13:28:50.190Z,28.00
2018-05-06T13:31:19.025Z,27.80
2018-05-06T13:33:47.081Z,27.70
2018-05-06T13:36:15.152Z,27.50
2018-05-06T13:38:43.230Z,27.50
2018-05-06T13:41:11.331Z,27.40
2018-05-06T13:43:39.843Z,27.40
2018-05-06T13:46:07.872Z,27.50
2018-05-06T13:51:05.240Z,27.20
2018-05-06T13:53:33.304Z,27.00
2018-05-06T13:56:02.498Z,27.00
2018-05-06T13:58:30.582Z,26.90
2018-05-06T14:00:59.401Z,26.90
2018-05-06T14:03:27.457Z,26.90
2018-05-06T14:05:55.605Z,26.90
2018-05-06T14:08:23.572Z,26.90
2018-05-06T14:10:51.639Z,27.00
2018-05-06T14:13:19.714Z,27.00
2018-05-06T14:15:47.784Z,26.70
2018-05-06T14:18:15.826Z,26.70
2018-05-06T14:20:43.849Z,26.30
2018-05-06T14:23:11.901Z,26.20
2018-05-06T14:25:39.985Z,26.20
2018-05-06T14:28:08.034Z,26.20
2018-05-06T14:30:36.088Z,26.10
2018-05-06T14:33:04.166Z,26.00
2018-05-06T14:35:32.216Z,26.10
2018-05-06T14:38:00.274Z,26.00
2018-05-06T14:40:28.333Z,25.80
2018-05-06T14:42:56.393Z,25.70
2018-05-06T14:45:24.438Z,25.70
2018-05-06T14:48:04.270Z,25.70
2018-05-06T14:50:32.315Z,25.70
2018-05-06T14:53:01.169Z,25.60
2018-05-06T14:55:31.762Z,25.60
2018-05-06T14:57:59.805Z,25.60
2018-05-06T15:00:28.660Z,25.40
2018-05-06T15:02:57.550Z,25.40
2018-05-06T15:05:25.623Z,25.40
2018-05-06T15:07:53.679Z,25.40
2018-05-06T15:10:21.744Z,25.50
2018-05-06T15:12:49.820Z,25.60
2018-05-06T15:15:17.898Z,25.60
2018-05-06T15:17:45.944Z,25.50
2018-05-06T15:20:14.004Z,25.50
2018-05-06T15:22:42.079Z,25.50
2018-05-06T15:25:10.145Z,25.50
2018-05-06T15:27:38.955Z,25.30
2018-05-06T15:30:07.021Z,25.30
2018-05-06T15:32:35.087Z,25.40
2018-05-06T15:35:03.145Z,25.40
2018-05-06T15:37:31.190Z,25.40
2018-05-06T15:39:59.281Z,25.20
2018-05-06T15:42:28.081Z,25.20
2018-05-06T15:44:56.168Z,25.20
2018-05-06T15:47:24.221Z,25.30
2018-05-06T15:49:52.279Z,25.30
2018-05-06T15:52:20.362Z,25.20
2018-05-06T15:54:49.162Z,25.20
2018-05-06T15:57:17.735Z,25.20
2018-05-06T15:59:45.821Z,25.10
2018-05-06T16:05:31.519Z,24.90
2018-05-06T16:08:00.333Z,24.80
2018-05-06T16:10:28.413Z,24.80
2018-05-06T16:12:56.503Z,24.80
2018-05-06T16:15:24.553Z,24.80
2018-05-06T16:17:52.661Z,24.70
2018-05-06T16:20:20.730Z,24.60
2018-05-06T16:22:48.803Z,24.60
2018-05-06T16:25:16.833Z,24.70
2018-05-06T16:27:44.898Z,24.70
2018-05-06T16:30:12.944Z,24.70
2018-05-06T16:32:41.737Z,24.50
2018-05-06T16:35:09.868Z,24.50
2018-05-06T16:37:37.901Z,24.40
2018-05-06T16:40:05.997Z,24.40
2018-05-06T16:42:34.027Z,24.40
2018-05-06T16:45:02.103Z,21.90
2018-05-06T16:47:30.918Z,24.30
2018-05-06T16:49:58.988Z,24.30
2018-05-06T16:52:27.010Z,24.30
2018-05-06T16:54:55.863Z,24.20
2018-05-06T16:57:24.020Z,24.20
2018-05-06T16:59:52.789Z,24.00
2018-05-06T17:02:21.190Z,24.00
2018-05-06T17:04:49.298Z,24.00
2018-05-06T17:07:18.165Z,23.90
2018-05-06T17:09:46.277Z,23.90
2018-05-06T17:12:15.124Z,23.90
2018-05-06T17:14:43.194Z,23.90
2018-05-06T17:17:11.316Z,23.90
2018-05-06T17:19:40.158Z,23.80
2018-05-06T17:22:08.336Z,23.80
2018-05-06T17:24:39.513Z,23.80
2018-05-06T17:27:08.349Z,23.80
2018-05-06T17:29:36.385Z,23.70
2018-05-06T17:32:04.542Z,23.70
2018-05-06T17:34:33.353Z,23.70
2018-05-06T17:37:01.384Z,23.70
2018-05-06T17:39:29.450Z,23.50
2018-05-06T17:41:57.502Z,23.50
2018-05-06T17:44:25.597Z,23.40
2018-05-06T17:46:53.647Z,23.40
2018-05-06T17:49:21.701Z,23.40
2018-05-06T17:51:49.781Z,23.30
2018-05-06T17:54:17.921Z,23.20
2018-05-06T17:56:45.938Z,23.10
2018-05-06T17:59:14.005Z,23.00
2018-05-06T18:01:42.087Z,23.00
2018-05-06T18:04:10.079Z,22.90
2018-05-06T18:06:38.525Z,22.90
2018-05-06T18:09:06.596Z,22.90
2018-05-06T18:11:34.656Z,22.80
2018-05-06T18:14:03.454Z,22.80
2018-05-06T18:16:32.289Z,22.80
2018-05-06T18:21:31.165Z,22.70
2018-05-06T18:23:59.254Z,22.70
2018-05-06T18:26:27.293Z,22.60
2018-05-06T18:28:55.363Z,22.50
2018-05-06T18:31:23.432Z,22.50
2018-05-06T18:33:51.470Z,22.40
2018-05-06T18:36:19.504Z,22.30
2018-05-06T18:38:47.564Z,22.30
2018-05-06T18:41:15.625Z,22.20
2018-05-06T18:43:43.682Z,22.20
2018-05-06T18:46:11.770Z,22.10
2018-05-06T18:48:39.801Z,22.00
2018-05-06T18:51:10.694Z,22.00
2018-05-06T18:53:39.669Z,21.80
2018-05-06T18:56:07.744Z,21.80
2018-05-06T18:58:35.823Z,21.70
2018-05-06T19:01:03.862Z,21.70
2018-05-06T19:03:31.929Z,21.60
2018-05-06T19:06:00.801Z,21.50
2018-05-06T19:08:28.920Z,21.50
2018-05-06T19:10:56.912Z,21.50
2018-05-06T19:13:24.945Z,21.40
2018-05-06T19:15:53.003Z,21.40
2018-05-06T19:18:21.099Z,21.30
2018-05-06T19:20:49.123Z,21.30
2018-05-06T19:23:17.971Z,21.20
2018-05-06T19:25:46.026Z,21.10
2018-05-06T19:28:14.088Z,21.20
2018-05-06T19:30:42.144Z,21.00
2018-05-06T19:33:10.234Z,21.00
2018-05-06T19:35:38.313Z,21.00
2018-05-06T19:38:06.369Z,21.00
2018-05-06T19:40:34.403Z,20.90
2018-05-06T19:43:03.509Z,20.80
2018-05-06T19:45:32.340Z,20.80
2018-05-06T19:48:00.417Z,20.70
2018-05-06T19:50:28.518Z,20.70
2018-05-06T19:52:56.565Z,20.70
2018-05-06T19:55:24.686Z,20.60
2018-05-06T19:57:52.776Z,20.60
2018-05-06T20:00:20.913Z,20.50
2018-05-06T20:02:48.995Z,20.50
2018-05-06T20:05:17.811Z,20.40
2018-05-06T20:07:45.885Z,20.40
2018-05-06T20:10:13.953Z,20.30
2018-05-06T20:12:42.020Z,20.30
2018-05-06T20:15:10.097Z,20.20
2018-05-06T20:17:38.121Z,20.20
2018-05-06T20:20:06.334Z,20.10
2018-05-06T20:22:34.407Z,20.00
2018-05-06T20:25:02.449Z,20.00
2018-05-06T20:27:31.277Z,20.00
2018-05-06T20:29:59.358Z,19.90
2018-05-06T20:32:27.426Z,19.90
2018-05-06T20:34:55.530Z,19.80
2018-05-06T20:37:23.545Z,19.80
2018-05-06T20:39:51.585Z,19.70
2018-05-06T20:42:19.681Z,19.70
2018-05-06T20:44:47.727Z,19.60
2018-05-06T20:47:15.804Z,19.50
2018-05-06T20:49:45.290Z,19.50
2018-05-06T20:52:14.224Z,19.40
2018-05-06T20:54:42.423Z,19.40
2018-05-06T20:57:10.438Z,19.30
2018-05-06T20:59:38.480Z,19.30
2018-05-06T21:02:06.554Z,19.30
2018-05-06T21:04:34.608Z,19.30
2018-05-06T21:07:02.693Z,19.20
2018-05-06T21:09:30.721Z,19.20
2018-05-06T21:11:58.793Z,19.10
2018-05-06T21:14:27.623Z,19.00
2018-05-06T21:16:55.755Z,19.00
2018-05-06T21:19:23.866Z,19.00
2018-05-06T21:21:51.878Z,18.90
2018-05-06T21:24:19.986Z,18.90
2018-05-06T21:26:48.040Z,18.80
2018-05-06T21:29:16.867Z,18.80
2018-05-06T21:31:44.901Z,18.80
2018-05-06T21:34:13.057Z,18.80
2018-05-06T21:36:41.055Z,18.80
2018-05-06T21:39:10.600Z,18.70
2018-05-06T21:41:38.608Z,18.70
2018-05-06T21:44:06.681Z,18.70
2018-05-06T21:46:34.726Z,18.70
2018-05-06T21:49:02.786Z,18.60
2018-05-06T21:51:30.854Z,18.60
2018-05-06T21:53:58.960Z,18.50
2018-05-06T21:56:27.765Z,18.50
2018-05-06T21:58:55.845Z,18.40
2018-05-06T22:01:24.645Z,18.40
2018-05-06T22:03:52.731Z,18.40
2018-05-06T22:06:20.790Z,18.40
2018-05-06T22:08:48.872Z,18.30
2018-05-06T22:11:17.914Z,18.20
2018-05-06T22:13:45.946Z,18.10
2018-05-06T22:16:13.977Z,18.10
2018-05-06T22:18:42.045Z,18.00
2018-05-06T22:21:10.866Z,18.00
2018-05-06T22:23:38.981Z,18.00
2018-05-06T22:26:07.030Z,18.00
2018-05-06T22:28:35.102Z,18.00
2018-05-06T22:31:03.166Z,18.00
2018-05-06T22:33:31.221Z,17.90
2018-05-06T22:35:59.275Z,17.90
2018-05-06T22:38:27.362Z,17.80
2018-05-06T22:40:55.424Z,17.80
2018-05-06T22:43:23.520Z,17.70
2018-05-06T22:45:52.727Z,17.70
2018-05-06T22:48:20.801Z,17.70
2018-05-06T22:50:48.845Z,17.70
2018-05-06T22:53:16.910Z,17.60
2018-05-06T22:55:45.369Z,17.60
2018-05-06T22:58:13.389Z,17.50
2018-05-06T23:00:41.460Z,17.50
2018-05-06T23:03:09.502Z,17.50
2018-05-06T23:05:37.664Z,17.40
2018-05-06T23:08:05.708Z,17.30
2018-05-06T23:10:33.758Z,17.30
2018-05-06T23:13:01.814Z,17.30
2018-05-06T23:15:29.890Z,17.30
2018-05-06T23:17:57.927Z,17.30
2018-05-06T23:20:25.998Z,17.20
2018-05-06T23:22:54.054Z,17.20
2018-05-06T23:25:22.876Z,17.10
2018-05-06T23:27:50.922Z,17.20
2018-05-06T23:30:18.981Z,17.20
2018-05-06T23:32:47.806Z,17.10
2018-05-06T23:35:15.854Z,17.10
2018-05-06T23:37:43.921Z,17.10
2018-05-06T23:40:11.977Z,17.10
2018-05-06T23:42:40.799Z,16.90
2018-05-06T23:45:08.855Z,16.90
2018-05-06T23:47:36.904Z,16.90
2018-05-06T23:50:05.737Z,16.70
2018-05-06T23:52:34.529Z,16.70
2018-05-06T23:55:02.581Z,16.70
2018-05-06T23:57:31.902Z,16.60
2018-05-06T23:59:59.950Z,16.70
